sensor_id;sensor_type;location;lat;lon;timestamp;temperature;humidity
1568;DHT22;777;47.156;8.326;2022-12-31T00:01:24;7.70;99.90
1568;DHT22;777;47.156;8.326;2022-12-31T00:03:53;7.70;99.90
1568;DHT22;777;47.156;8.326;2022-12-31T00:06:23;7.70;99.90
1568;DHT22;777;47.156;8.326;2022-12-31T00:08:53;7.70;99.90
1568;DHT22;777;47.156;8.326;2022-12-31T00:11:21;7.80;99.90
1568;DHT22;777;47.156;8.326;2022-12-31T00:13:49;7.90;99.90
1568;DHT22;777;47.156;8.326;2022-12-31T00:16:18;7.90;99.90
1568;DHT22;777;47.156;8.326;2022-12-31T00:18:46;7.90;99.90
1568;DHT22;777;47.156;8.326;2022-12-31T00:21:14;7.80;99.90
1568;DHT22;777;47.156;8.326;2022-12-31T00:23:41;7.80;99.90
1568;DHT22;777;47.156;8.326;2022-12-31T00:26:12;7.70;99.90
1568;DHT22;777;47.156;8.326;2022-12-31T00:28:40;7.70;99.90
1568;DHT22;777;47.156;8.326;2022-12-31T00:31:10;7.70;99.90
1568;DHT22;777;47.156;8.326;2022-12-31T00:33:37;7.80;99.90
1568;DHT22;777;47.156;8.326;2022-12-31T00:36:09;7.80;99.90
1568;DHT22;777;47.156;8.326;2022-12-31T00:38:38;7.70;99.90
1568;DHT22;777;47.156;8.326;2022-12-31T00:41:06;7.70;99.90
1568;DHT22;777;47.156;8.326;2022-12-31T00:43:35;7.80;99.90
1568;DHT22;777;47.156;8.326;2022-12-31T00:46:03;7.70;99.90
1568;DHT22;777;47.156;8.326;2022-12-31T00:48:30;7.60;99.90
1568;DHT22;777;47.156;8.326;2022-12-31T00:50:57;7.50;99.90
1568;DHT22;777;47.156;8.326;2022-12-31T00:53:25;7.40;99.90
1568;DHT22;777;47.156;8.326;2022-12-31T00:55:58;7.20;99.90
1568;DHT22;777;47.156;8.326;2022-12-31T00:58:25;7.20;99.90
1568;DHT22;777;47.156;8.326;2022-12-31T01:00:54;7.20;99.90
1568;DHT22;777;47.156;8.326;2022-12-31T01:03:21;7.20;99.90
1568;DHT22;777;47.156;8.326;2022-12-31T01:05:48;7.40;99.90
1568;DHT22;777;47.156;8.326;2022-12-31T01:08:15;7.40;99.90
1568;DHT22;777;47.156;8.326;2022-12-31T01:10:47;7.30;99.90
1568;DHT22;777;47.156;8.326;2022-12-31T01:13:32;7.10;99.90
1568;DHT22;777;47.156;8.326;2022-12-31T01:16:07;7.00;99.90
1568;DHT22;777;47.156;8.326;2022-12-31T01:18:34;6.80;99.90
1568;DHT22;777;47.156;8.326;2022-12-31T01:21:02;6.60;99.90
1568;DHT22;777;47.156;8.326;2022-12-31T01:23:29;6.70;99.90
1568;DHT22;777;47.156;8.326;2022-12-31T01:25:59;6.60;99.90
1568;DHT22;777;47.156;8.326;2022-12-31T01:28:26;6.70;99.90
1568;DHT22;777;47.156;8.326;2022-12-31T01:30:54;6.80;99.90
1568;DHT22;777;47.156;8.326;2022-12-31T01:33:22;6.80;99.90
1568;DHT22;777;47.156;8.326;2022-12-31T01:35:51;6.80;99.90
1568;DHT22;777;47.156;8.326;2022-12-31T01:38:18;6.80;99.90
1568;DHT22;777;47.156;8.326;2022-12-31T01:40:44;6.80;99.90
1568;DHT22;777;47.156;8.326;2022-12-31T01:43:15;6.80;99.90
1568;DHT22;777;47.156;8.326;2022-12-31T01:45:43;6.90;99.90
1568;DHT22;777;47.156;8.326;2022-12-31T01:48:13;6.90;99.90
1568;DHT22;777;47.156;8.326;2022-12-31T01:50:42;7.10;99.90
1568;DHT22;777;47.156;8.326;2022-12-31T01:53:12;7.10;99.90
1568;DHT22;777;47.156;8.326;2022-12-31T01:55:43;7.20;99.90
1568;DHT22;777;47.156;8.326;2022-12-31T01:58:20;7.30;99.90
1568;DHT22;777;47.156;8.326;2022-12-31T02:00:48;7.30;99.90
1568;DHT22;777;47.156;8.326;2022-12-31T02:03:17;7.30;99.90
1568;DHT22;777;47.156;8.326;2022-12-31T02:05:48;7.40;99.90
1568;DHT22;777;47.156;8.326;2022-12-31T02:08:17;7.40;99.90
1568;DHT22;777;47.156;8.326;2022-12-31T02:10:44;7.50;99.90
1568;DHT22;777;47.156;8.326;2022-12-31T02:13:11;7.50;99.90
1568;DHT22;777;47.156;8.326;2022-12-31T02:15:51;7.50;99.90
1568;DHT22;777;47.156;8.326;2022-12-31T02:18:27;7.40;99.90
1568;DHT22;777;47.156;8.326;2022-12-31T02:24:15;7.40;99.90
1568;DHT22;777;47.156;8.326;2022-12-31T02:26:56;7.40;99.90
1568;DHT22;777;47.156;8.326;2022-12-31T02:32:29;7.30;99.90
1568;DHT22;777;47.156;8.326;2022-12-31T02:35:02;7.20;99.90
1568;DHT22;777;47.156;8.326;2022-12-31T02:37:32;7.30;99.90
1568;DHT22;777;47.156;8.326;2022-12-31T02:39:59;7.30;99.90
1568;DHT22;777;47.156;8.326;2022-12-31T02:42:26;7.30;99.90
1568;DHT22;777;47.156;8.326;2022-12-31T02:44:53;7.20;99.90
1568;DHT22;777;47.156;8.326;2022-12-31T02:47:31;7.20;99.90
1568;DHT22;777;47.156;8.326;2022-12-31T02:50:15;7.20;99.90
1568;DHT22;777;47.156;8.326;2022-12-31T02:52:52;7.20;99.90
1568;DHT22;777;47.156;8.326;2022-12-31T02:55:29;7.20;99.90
1568;DHT22;777;47.156;8.326;2022-12-31T02:58:04;7.20;99.90
1568;DHT22;777;47.156;8.326;2022-12-31T03:00:34;7.30;99.90
1568;DHT22;777;47.156;8.326;2022-12-31T03:03:22;7.40;99.90
1568;DHT22;777;47.156;8.326;2022-12-31T03:05:50;7.40;99.90
1568;DHT22;777;47.156;8.326;2022-12-31T03:08:20;7.50;99.90
1568;DHT22;777;47.156;8.326;2022-12-31T03:10:48;7.50;99.90
1568;DHT22;777;47.156;8.326;2022-12-31T03:13:15;7.50;99.90
1568;DHT22;777;47.156;8.326;2022-12-31T03:15:41;7.40;99.90
1568;DHT22;777;47.156;8.326;2022-12-31T03:18:11;7.40;99.90
1568;DHT22;777;47.156;8.326;2022-12-31T03:20:44;7.40;99.90
1568;DHT22;777;47.156;8.326;2022-12-31T03:23:30;7.40;99.90
1568;DHT22;777;47.156;8.326;2022-12-31T03:25:59;7.30;99.90
1568;DHT22;777;47.156;8.326;2022-12-31T03:28:27;7.30;99.90
1568;DHT22;777;47.156;8.326;2022-12-31T03:30:57;7.30;99.90
1568;DHT22;777;47.156;8.326;2022-12-31T03:33:25;7.20;99.90
1568;DHT22;777;47.156;8.326;2022-12-31T03:35:56;7.10;99.90
1568;DHT22;777;47.156;8.326;2022-12-31T03:38:23;7.10;99.90
1568;DHT22;777;47.156;8.326;2022-12-31T03:40:52;7.10;99.90
1568;DHT22;777;47.156;8.326;2022-12-31T03:43:19;7.20;99.90
1568;DHT22;777;47.156;8.326;2022-12-31T03:45:47;7.40;99.90
1568;DHT22;777;47.156;8.326;2022-12-31T03:48:16;7.40;99.90
1568;DHT22;777;47.156;8.326;2022-12-31T03:50:43;7.30;99.90
1568;DHT22;777;47.156;8.326;2022-12-31T03:53:11;7.40;99.90
1568;DHT22;777;47.156;8.326;2022-12-31T03:55:38;7.50;99.90
1568;DHT22;777;47.156;8.326;2022-12-31T03:58:05;7.50;99.90
1568;DHT22;777;47.156;8.326;2022-12-31T04:00:32;7.50;99.90
1568;DHT22;777;47.156;8.326;2022-12-31T04:02:59;7.50;99.90
1568;DHT22;777;47.156;8.326;2022-12-31T04:05:26;7.50;99.90
1568;DHT22;777;47.156;8.326;2022-12-31T04:07:53;7.40;99.90
1568;DHT22;777;47.156;8.326;2022-12-31T04:10:22;7.40;99.90
1568;DHT22;777;47.156;8.326;2022-12-31T04:12:49;7.40;99.90
1568;DHT22;777;47.156;8.326;2022-12-31T04:15:18;7.40;99.90
1568;DHT22;777;47.156;8.326;2022-12-31T04:17:46;7.30;99.90
1568;DHT22;777;47.156;8.326;2022-12-31T04:20:13;7.30;99.90
1568;DHT22;777;47.156;8.326;2022-12-31T04:22:40;7.40;99.90
1568;DHT22;777;47.156;8.326;2022-12-31T04:25:10;7.40;99.90
1568;DHT22;777;47.156;8.326;2022-12-31T04:27:40;7.50;99.90
1568;DHT22;777;47.156;8.326;2022-12-31T04:30:09;7.40;99.90
1568;DHT22;777;47.156;8.326;2022-12-31T04:32:37;7.40;99.90
1568;DHT22;777;47.156;8.326;2022-12-31T04:35:05;7.40;99.90
1568;DHT22;777;47.156;8.326;2022-12-31T04:37:33;7.50;99.90
1568;DHT22;777;47.156;8.326;2022-12-31T04:40:00;7.60;99.90
1568;DHT22;777;47.156;8.326;2022-12-31T04:42:27;7.60;99.90
1568;DHT22;777;47.156;8.326;2022-12-31T04:44:55;7.70;99.90
1568;DHT22;777;47.156;8.326;2022-12-31T04:47:22;7.80;99.90
1568;DHT22;777;47.156;8.326;2022-12-31T04:49:49;7.70;99.90
1568;DHT22;777;47.156;8.326;2022-12-31T04:52:16;7.70;99.90
1568;DHT22;777;47.156;8.326;2022-12-31T04:54:43;7.70;99.90
1568;DHT22;777;47.156;8.326;2022-12-31T04:57:10;7.60;99.90
1568;DHT22;777;47.156;8.326;2022-12-31T04:59:38;7.60;99.90
1568;DHT22;777;47.156;8.326;2022-12-31T05:02:07;7.50;99.90
1568;DHT22;777;47.156;8.326;2022-12-31T05:04:34;7.50;99.90
1568;DHT22;777;47.156;8.326;2022-12-31T05:07:01;7.50;99.90
1568;DHT22;777;47.156;8.326;2022-12-31T05:09:28;7.50;99.90
1568;DHT22;777;47.156;8.326;2022-12-31T05:11:55;7.50;99.90
1568;DHT22;777;47.156;8.326;2022-12-31T05:14:22;7.50;99.90
1568;DHT22;777;47.156;8.326;2022-12-31T05:16:49;7.50;99.90
1568;DHT22;777;47.156;8.326;2022-12-31T05:19:18;7.60;99.90
1568;DHT22;777;47.156;8.326;2022-12-31T05:21:45;7.50;99.90
1568;DHT22;777;47.156;8.326;2022-12-31T05:24:32;7.60;99.90
1568;DHT22;777;47.156;8.326;2022-12-31T05:26:59;7.60;99.90
1568;DHT22;777;47.156;8.326;2022-12-31T05:29:26;7.70;99.90
1568;DHT22;777;47.156;8.326;2022-12-31T05:31:53;7.70;99.90
1568;DHT22;777;47.156;8.326;2022-12-31T05:34:21;7.70;99.90
1568;DHT22;777;47.156;8.326;2022-12-31T05:36:48;7.70;99.90
1568;DHT22;777;47.156;8.326;2022-12-31T05:39:16;7.70;99.90
1568;DHT22;777;47.156;8.326;2022-12-31T05:41:43;7.70;99.90
1568;DHT22;777;47.156;8.326;2022-12-31T05:44:10;7.70;99.90
1568;DHT22;777;47.156;8.326;2022-12-31T05:46:37;7.70;99.90
1568;DHT22;777;47.156;8.326;2022-12-31T05:49:04;7.80;99.90
1568;DHT22;777;47.156;8.326;2022-12-31T05:51:32;7.80;99.90
1568;DHT22;777;47.156;8.326;2022-12-31T05:53:59;7.80;99.90
1568;DHT22;777;47.156;8.326;2022-12-31T05:56:26;7.80;99.90
1568;DHT22;777;47.156;8.326;2022-12-31T05:58:53;7.80;99.90
1568;DHT22;777;47.156;8.326;2022-12-31T06:01:20;7.80;99.90
1568;DHT22;777;47.156;8.326;2022-12-31T06:03:47;7.70;99.90
1568;DHT22;777;47.156;8.326;2022-12-31T06:06:14;7.50;99.90
1568;DHT22;777;47.156;8.326;2022-12-31T06:08:43;7.50;99.90
1568;DHT22;777;47.156;8.326;2022-12-31T06:11:10;7.40;99.90
1568;DHT22;777;47.156;8.326;2022-12-31T06:13:37;7.50;99.90
1568;DHT22;777;47.156;8.326;2022-12-31T06:16:05;7.50;99.90
1568;DHT22;777;47.156;8.326;2022-12-31T06:18:32;7.50;99.90
1568;DHT22;777;47.156;8.326;2022-12-31T06:20:59;7.50;99.90
1568;DHT22;777;47.156;8.326;2022-12-31T06:23:26;7.40;99.90
1568;DHT22;777;47.156;8.326;2022-12-31T06:25:55;7.30;99.90
1568;DHT22;777;47.156;8.326;2022-12-31T06:28:22;7.30;99.90
1568;DHT22;777;47.156;8.326;2022-12-31T06:30:49;7.30;99.90
1568;DHT22;777;47.156;8.326;2022-12-31T06:33:17;7.20;99.90
1568;DHT22;777;47.156;8.326;2022-12-31T06:35:44;7.10;99.90
1568;DHT22;777;47.156;8.326;2022-12-31T06:38:11;7.00;99.90
1568;DHT22;777;47.156;8.326;2022-12-31T06:40:37;6.90;99.90
1568;DHT22;777;47.156;8.326;2022-12-31T06:43:06;7.00;99.90
1568;DHT22;777;47.156;8.326;2022-12-31T06:45:33;7.00;99.90
1568;DHT22;777;47.156;8.326;2022-12-31T06:48:00;7.00;99.90
1568;DHT22;777;47.156;8.326;2022-12-31T06:50:27;7.00;99.90
1568;DHT22;777;47.156;8.326;2022-12-31T06:52:54;6.90;99.90
1568;DHT22;777;47.156;8.326;2022-12-31T06:55:21;6.90;99.90
1568;DHT22;777;47.156;8.326;2022-12-31T06:57:48;7.00;99.90
1568;DHT22;777;47.156;8.326;2022-12-31T07:00:18;7.00;99.90
1568;DHT22;777;47.156;8.326;2022-12-31T07:03:00;7.10;99.90
1568;DHT22;777;47.156;8.326;2022-12-31T07:05:41;7.20;99.90
1568;DHT22;777;47.156;8.326;2022-12-31T07:08:20;7.20;99.90
1568;DHT22;777;47.156;8.326;2022-12-31T07:10:54;7.20;99.90
1568;DHT22;777;47.156;8.326;2022-12-31T07:16:30;6.90;99.90
1568;DHT22;777;47.156;8.326;2022-12-31T07:19:06;6.70;99.90
1568;DHT22;777;47.156;8.326;2022-12-31T07:21:38;6.60;99.90
1568;DHT22;777;47.156;8.326;2022-12-31T07:24:06;6.60;99.90
1568;DHT22;777;47.156;8.326;2022-12-31T07:26:53;6.60;99.90
1568;DHT22;777;47.156;8.326;2022-12-31T07:29:26;6.60;99.90
1568;DHT22;777;47.156;8.326;2022-12-31T07:32:03;6.70;99.90
1568;DHT22;777;47.156;8.326;2022-12-31T07:34:39;6.80;99.90
1568;DHT22;777;47.156;8.326;2022-12-31T07:37:14;6.90;99.90
1568;DHT22;777;47.156;8.326;2022-12-31T07:39:53;6.90;99.90
1568;DHT22;777;47.156;8.326;2022-12-31T07:42:30;6.90;99.90
1568;DHT22;777;47.156;8.326;2022-12-31T07:45:02;7.00;99.90
1568;DHT22;777;47.156;8.326;2022-12-31T07:47:35;7.00;99.90
1568;DHT22;777;47.156;8.326;2022-12-31T07:50:03;7.00;99.90
1568;DHT22;777;47.156;8.326;2022-12-31T07:52:30;7.00;99.90
1568;DHT22;777;47.156;8.326;2022-12-31T07:54:57;7.10;99.90
1568;DHT22;777;47.156;8.326;2022-12-31T07:57:30;7.20;99.90
1568;DHT22;777;47.156;8.326;2022-12-31T08:00:05;7.30;99.90
1568;DHT22;777;47.156;8.326;2022-12-31T08:03:00;7.40;99.90
1568;DHT22;777;47.156;8.326;2022-12-31T08:05:33;7.20;99.90
1568;DHT22;777;47.156;8.326;2022-12-31T08:08:17;7.40;99.90
1568;DHT22;777;47.156;8.326;2022-12-31T08:10:58;7.80;99.90
1568;DHT22;777;47.156;8.326;2022-12-31T08:13:27;8.00;99.90
1568;DHT22;777;47.156;8.326;2022-12-31T08:15:54;8.00;99.90
1568;DHT22;777;47.156;8.326;2022-12-31T08:18:23;8.00;99.90
1568;DHT22;777;47.156;8.326;2022-12-31T08:20:56;7.90;99.90
1568;DHT22;777;47.156;8.326;2022-12-31T08:23:31;7.60;99.90
1568;DHT22;777;47.156;8.326;2022-12-31T08:26:14;7.60;99.90
1568;DHT22;777;47.156;8.326;2022-12-31T08:28:58;7.80;99.90
1568;DHT22;777;47.156;8.326;2022-12-31T08:31:33;7.90;99.90
1568;DHT22;777;47.156;8.326;2022-12-31T08:34:09;8.00;99.90
1568;DHT22;777;47.156;8.326;2022-12-31T08:36:44;8.10;99.90
1568;DHT22;777;47.156;8.326;2022-12-31T08:39:22;8.40;99.90
1568;DHT22;777;47.156;8.326;2022-12-31T08:41:55;9.10;99.90
1568;DHT22;777;47.156;8.326;2022-12-31T08:44:28;9.80;99.90
1568;DHT22;777;47.156;8.326;2022-12-31T08:47:05;10.80;99.90
1568;DHT22;777;47.156;8.326;2022-12-31T08:49:37;11.50;99.90
1568;DHT22;777;47.156;8.326;2022-12-31T08:52:12;12.80;99.90
1568;DHT22;777;47.156;8.326;2022-12-31T08:57:14;13.50;99.90
1568;DHT22;777;47.156;8.326;2022-12-31T08:59:52;14.20;99.90
1568;DHT22;777;47.156;8.326;2022-12-31T09:02:57;14.80;99.90
1568;DHT22;777;47.156;8.326;2022-12-31T09:05:34;14.80;99.90
1568;DHT22;777;47.156;8.326;2022-12-31T09:08:10;15.10;99.90
1568;DHT22;777;47.156;8.326;2022-12-31T09:10:46;15.60;99.90
1568;DHT22;777;47.156;8.326;2022-12-31T09:13:22;15.30;99.90
1568;DHT22;777;47.156;8.326;2022-12-31T09:23:20;17.00;99.90
1568;DHT22;777;47.156;8.326;2022-12-31T09:25:53;17.60;99.90
1568;DHT22;777;47.156;8.326;2022-12-31T09:28:35;18.00;99.90
1568;DHT22;777;47.156;8.326;2022-12-31T09:31:10;18.10;99.90
1568;DHT22;777;47.156;8.326;2022-12-31T09:33:41;18.00;99.90
1568;DHT22;777;47.156;8.326;2022-12-31T09:36:17;18.10;99.90
1568;DHT22;777;47.156;8.326;2022-12-31T09:38:50;17.90;99.90
1568;DHT22;777;47.156;8.326;2022-12-31T09:41:38;18.00;99.90
1568;DHT22;777;47.156;8.326;2022-12-31T09:50:26;18.60;99.90
1568;DHT22;777;47.156;8.326;2022-12-31T09:53:21;18.40;99.90
1568;DHT22;777;47.156;8.326;2022-12-31T09:55:55;18.60;99.90
1568;DHT22;777;47.156;8.326;2022-12-31T09:58:36;18.50;99.90
1568;DHT22;777;47.156;8.326;2022-12-31T10:01:12;18.20;99.90
1568;DHT22;777;47.156;8.326;2022-12-31T10:06:43;17.40;99.90
1568;DHT22;777;47.156;8.326;2022-12-31T10:12:31;17.00;99.90
1568;DHT22;777;47.156;8.326;2022-12-31T10:15:15;16.90;99.90
1568;DHT22;777;47.156;8.326;2022-12-31T10:17:54;17.10;99.90
1568;DHT22;777;47.156;8.326;2022-12-31T10:20:32;17.20;99.90
1568;DHT22;777;47.156;8.326;2022-12-31T10:23:22;17.40;99.90
1568;DHT22;777;47.156;8.326;2022-12-31T10:28:51;17.10;99.90
1568;DHT22;777;47.156;8.326;2022-12-31T10:31:36;16.30;99.90
1568;DHT22;777;47.156;8.326;2022-12-31T10:34:12;15.90;99.90
1568;DHT22;777;47.156;8.326;2022-12-31T10:36:50;15.70;99.90
1568;DHT22;777;47.156;8.326;2022-12-31T10:39:26;15.50;99.90
1568;DHT22;777;47.156;8.326;2022-12-31T10:55:04;15.70;99.90
1568;DHT22;777;47.156;8.326;2022-12-31T10:57:50;15.90;99.90
1568;DHT22;777;47.156;8.326;2022-12-31T11:00:28;16.40;99.90
1568;DHT22;777;47.156;8.326;2022-12-31T11:06:26;16.60;99.90
1568;DHT22;777;47.156;8.326;2022-12-31T11:09:23;16.30;99.90
1568;DHT22;777;47.156;8.326;2022-12-31T11:12:04;16.80;99.90
1568;DHT22;777;47.156;8.326;2022-12-31T11:14:57;16.70;99.90
1568;DHT22;777;47.156;8.326;2022-12-31T11:17:44;16.40;99.90
1568;DHT22;777;47.156;8.326;2022-12-31T11:20:41;16.20;99.90
1568;DHT22;777;47.156;8.326;2022-12-31T11:23:24;16.10;99.90
1568;DHT22;777;47.156;8.326;2022-12-31T11:26:00;15.80;99.90
1568;DHT22;777;47.156;8.326;2022-12-31T11:28:44;15.70;99.90
1568;DHT22;777;47.156;8.326;2022-12-31T11:31:27;15.60;99.90
1568;DHT22;777;47.156;8.326;2022-12-31T11:34:07;15.60;99.90
1568;DHT22;777;47.156;8.326;2022-12-31T11:36:43;15.40;99.90
1568;DHT22;777;47.156;8.326;2022-12-31T11:39:34;15.40;99.90
1568;DHT22;777;47.156;8.326;2022-12-31T11:42:17;15.40;99.90
1568;DHT22;777;47.156;8.326;2022-12-31T11:44:50;15.40;99.90
1568;DHT22;777;47.156;8.326;2022-12-31T11:47:40;15.30;99.90
1568;DHT22;777;47.156;8.326;2022-12-31T11:50:27;15.30;99.90
1568;DHT22;777;47.156;8.326;2022-12-31T11:53:02;15.20;99.90
1568;DHT22;777;47.156;8.326;2022-12-31T11:55:40;15.30;99.90
1568;DHT22;777;47.156;8.326;2022-12-31T11:58:12;15.40;99.90
1568;DHT22;777;47.156;8.326;2022-12-31T12:00:44;15.50;99.90
1568;DHT22;777;47.156;8.326;2022-12-31T12:03:13;15.70;99.90
1568;DHT22;777;47.156;8.326;2022-12-31T12:05:41;15.60;99.90
1568;DHT22;777;47.156;8.326;2022-12-31T12:08:08;15.40;99.90
1568;DHT22;777;47.156;8.326;2022-12-31T12:10:40;15.20;99.90
1568;DHT22;777;47.156;8.326;2022-12-31T12:13:16;15.10;99.90
1568;DHT22;777;47.156;8.326;2022-12-31T12:15:46;14.90;99.90
1568;DHT22;777;47.156;8.326;2022-12-31T12:18:26;15.00;99.90
1568;DHT22;777;47.156;8.326;2022-12-31T12:21:04;14.80;99.90
1568;DHT22;777;47.156;8.326;2022-12-31T12:23:31;14.80;99.90
1568;DHT22;777;47.156;8.326;2022-12-31T12:25:59;14.60;99.90
1568;DHT22;777;47.156;8.326;2022-12-31T12:28:27;14.50;99.90
1568;DHT22;777;47.156;8.326;2022-12-31T12:30:57;14.40;99.90
1568;DHT22;777;47.156;8.326;2022-12-31T12:33:26;14.30;99.90
1568;DHT22;777;47.156;8.326;2022-12-31T12:36:07;14.20;99.90
1568;DHT22;777;47.156;8.326;2022-12-31T12:38:35;14.10;99.90
1568;DHT22;777;47.156;8.326;2022-12-31T12:41:05;14.10;99.90
1568;DHT22;777;47.156;8.326;2022-12-31T12:43:34;14.30;99.90
1568;DHT22;777;47.156;8.326;2022-12-31T12:46:03;14.20;99.90
1568;DHT22;777;47.156;8.326;2022-12-31T12:48:37;14.30;99.90
1568;DHT22;777;47.156;8.326;2022-12-31T12:51:18;14.30;99.90
1568;DHT22;777;47.156;8.326;2022-12-31T12:53:53;14.50;99.90
1568;DHT22;777;47.156;8.326;2022-12-31T12:56:30;14.50;99.90
1568;DHT22;777;47.156;8.326;2022-12-31T12:59:17;14.60;99.90
1568;DHT22;777;47.156;8.326;2022-12-31T13:01:55;14.70;99.90
1568;DHT22;777;47.156;8.326;2022-12-31T13:04:44;14.80;99.90
1568;DHT22;777;47.156;8.326;2022-12-31T13:07:27;14.70;99.90
1568;DHT22;777;47.156;8.326;2022-12-31T13:10:14;14.60;99.90
1568;DHT22;777;47.156;8.326;2022-12-31T13:12:49;14.50;99.90
1568;DHT22;777;47.156;8.326;2022-12-31T13:15:23;14.40;99.90
1568;DHT22;777;47.156;8.326;2022-12-31T13:17:58;14.40;99.90
1568;DHT22;777;47.156;8.326;2022-12-31T13:20:32;14.20;99.90
1568;DHT22;777;47.156;8.326;2022-12-31T13:23:10;14.00;99.90
1568;DHT22;777;47.156;8.326;2022-12-31T13:25:51;14.00;99.90
1568;DHT22;777;47.156;8.326;2022-12-31T13:28:21;13.90;99.90
1568;DHT22;777;47.156;8.326;2022-12-31T13:30:51;13.80;99.90
1568;DHT22;777;47.156;8.326;2022-12-31T13:33:21;13.80;99.90
1568;DHT22;777;47.156;8.326;2022-12-31T13:35:52;13.80;99.90
1568;DHT22;777;47.156;8.326;2022-12-31T13:38:23;13.80;99.90
1568;DHT22;777;47.156;8.326;2022-12-31T13:40:59;13.70;99.90
1568;DHT22;777;47.156;8.326;2022-12-31T13:43:33;13.70;99.90
1568;DHT22;777;47.156;8.326;2022-12-31T13:46:08;13.60;99.90
1568;DHT22;777;47.156;8.326;2022-12-31T13:48:41;13.40;99.90
1568;DHT22;777;47.156;8.326;2022-12-31T13:51:14;13.40;99.90
1568;DHT22;777;47.156;8.326;2022-12-31T13:53:47;13.40;99.90
1568;DHT22;777;47.156;8.326;2022-12-31T13:56:21;13.30;99.90
1568;DHT22;777;47.156;8.326;2022-12-31T13:58:53;13.30;99.90
1568;DHT22;777;47.156;8.326;2022-12-31T14:01:27;13.20;99.90
1568;DHT22;777;47.156;8.326;2022-12-31T14:04:11;13.00;99.90
1568;DHT22;777;47.156;8.326;2022-12-31T14:06:42;13.00;99.90
1568;DHT22;777;47.156;8.326;2022-12-31T14:09:18;13.00;99.90
1568;DHT22;777;47.156;8.326;2022-12-31T14:12:07;13.00;99.90
1568;DHT22;777;47.156;8.326;2022-12-31T14:14:39;13.00;99.90
1568;DHT22;777;47.156;8.326;2022-12-31T14:17:18;13.10;99.90
1568;DHT22;777;47.156;8.326;2022-12-31T14:19:56;13.00;99.90
1568;DHT22;777;47.156;8.326;2022-12-31T14:22:30;13.00;99.90
1568;DHT22;777;47.156;8.326;2022-12-31T14:25:02;12.90;99.90
1568;DHT22;777;47.156;8.326;2022-12-31T14:27:35;12.70;99.90
1568;DHT22;777;47.156;8.326;2022-12-31T14:30:05;12.40;99.90
1568;DHT22;777;47.156;8.326;2022-12-31T14:32:49;12.40;99.90
1568;DHT22;777;47.156;8.326;2022-12-31T14:38:35;12.40;99.90
1568;DHT22;777;47.156;8.326;2022-12-31T14:41:14;12.50;99.90
1568;DHT22;777;47.156;8.326;2022-12-31T14:43:53;12.60;99.90
1568;DHT22;777;47.156;8.326;2022-12-31T14:46:27;12.50;99.90
1568;DHT22;777;47.156;8.326;2022-12-31T14:49:05;12.50;99.90
1568;DHT22;777;47.156;8.326;2022-12-31T14:51:36;12.30;99.90
1568;DHT22;777;47.156;8.326;2022-12-31T14:54:03;12.30;99.90
1568;DHT22;777;47.156;8.326;2022-12-31T14:56:39;12.10;99.90
1568;DHT22;777;47.156;8.326;2022-12-31T14:59:22;11.80;99.90
1568;DHT22;777;47.156;8.326;2022-12-31T15:01:50;11.50;99.90
1568;DHT22;777;47.156;8.326;2022-12-31T15:04:30;11.40;99.90
1568;DHT22;777;47.156;8.326;2022-12-31T15:07:05;11.40;99.90
1568;DHT22;777;47.156;8.326;2022-12-31T15:10:08;11.40;99.90
1568;DHT22;777;47.156;8.326;2022-12-31T15:12:55;11.30;99.90
1568;DHT22;777;47.156;8.326;2022-12-31T15:15:39;11.10;99.90
1568;DHT22;777;47.156;8.326;2022-12-31T15:18:35;11.00;99.90
1568;DHT22;777;47.156;8.326;2022-12-31T15:21:19;10.90;99.90
1568;DHT22;777;47.156;8.326;2022-12-31T15:23:53;10.90;99.90
1568;DHT22;777;47.156;8.326;2022-12-31T15:26:23;10.80;99.90
1568;DHT22;777;47.156;8.326;2022-12-31T15:29:00;10.80;99.90
1568;DHT22;777;47.156;8.326;2022-12-31T15:31:28;10.80;99.90
1568;DHT22;777;47.156;8.326;2022-12-31T15:33:58;10.80;99.90
1568;DHT22;777;47.156;8.326;2022-12-31T15:36:28;10.80;99.90
1568;DHT22;777;47.156;8.326;2022-12-31T15:39:22;10.70;99.90
1568;DHT22;777;47.156;8.326;2022-12-31T15:41:51;10.50;99.90
1568;DHT22;777;47.156;8.326;2022-12-31T15:44:24;10.30;99.90
1568;DHT22;777;47.156;8.326;2022-12-31T15:46:55;10.20;99.90
1568;DHT22;777;47.156;8.326;2022-12-31T15:49:24;10.10;99.90
1568;DHT22;777;47.156;8.326;2022-12-31T15:51:59;10.00;99.90
1568;DHT22;777;47.156;8.326;2022-12-31T15:54:34;9.90;99.90
1568;DHT22;777;47.156;8.326;2022-12-31T15:57:02;9.90;99.90
1568;DHT22;777;47.156;8.326;2022-12-31T15:59:32;9.80;99.90
1568;DHT22;777;47.156;8.326;2022-12-31T16:02:00;9.80;99.90
1568;DHT22;777;47.156;8.326;2022-12-31T16:04:28;9.70;99.90
1568;DHT22;777;47.156;8.326;2022-12-31T16:06:58;9.60;99.90
1568;DHT22;777;47.156;8.326;2022-12-31T16:09:28;9.60;99.90
1568;DHT22;777;47.156;8.326;2022-12-31T16:11:56;9.50;99.90
1568;DHT22;777;47.156;8.326;2022-12-31T16:14:27;9.50;99.90
1568;DHT22;777;47.156;8.326;2022-12-31T16:17:00;9.60;99.90
1568;DHT22;777;47.156;8.326;2022-12-31T16:19:31;9.60;99.90
1568;DHT22;777;47.156;8.326;2022-12-31T16:22:05;9.50;99.90
1568;DHT22;777;47.156;8.326;2022-12-31T16:24:33;9.50;99.90
1568;DHT22;777;47.156;8.326;2022-12-31T16:27:04;9.50;99.90
1568;DHT22;777;47.156;8.326;2022-12-31T16:29:34;9.50;99.90
1568;DHT22;777;47.156;8.326;2022-12-31T16:32:03;9.50;99.90
1568;DHT22;777;47.156;8.326;2022-12-31T16:34:35;9.40;99.90
1568;DHT22;777;47.156;8.326;2022-12-31T16:37:04;9.30;99.90
1568;DHT22;777;47.156;8.326;2022-12-31T16:39:32;9.20;99.90
1568;DHT22;777;47.156;8.326;2022-12-31T16:42:13;9.10;99.90
1568;DHT22;777;47.156;8.326;2022-12-31T16:44:41;9.10;99.90
1568;DHT22;777;47.156;8.326;2022-12-31T16:47:15;9.10;99.90
1568;DHT22;777;47.156;8.326;2022-12-31T16:49:46;9.00;99.90
1568;DHT22;777;47.156;8.326;2022-12-31T16:52:23;9.00;99.90
1568;DHT22;777;47.156;8.326;2022-12-31T16:54:52;9.10;99.90
1568;DHT22;777;47.156;8.326;2022-12-31T16:57:21;9.10;99.90
1568;DHT22;777;47.156;8.326;2022-12-31T16:59:52;9.10;99.90
1568;DHT22;777;47.156;8.326;2022-12-31T17:02:26;9.20;99.90
1568;DHT22;777;47.156;8.326;2022-12-31T17:04:54;9.10;99.90
1568;DHT22;777;47.156;8.326;2022-12-31T17:07:31;9.10;99.90
1568;DHT22;777;47.156;8.326;2022-12-31T17:10:09;8.90;99.90
1568;DHT22;777;47.156;8.326;2022-12-31T17:12:41;8.70;99.90
1568;DHT22;777;47.156;8.326;2022-12-31T17:15:18;8.80;99.90
1568;DHT22;777;47.156;8.326;2022-12-31T17:17:50;8.90;99.90
1568;DHT22;777;47.156;8.326;2022-12-31T17:20:23;8.90;99.90
1568;DHT22;777;47.156;8.326;2022-12-31T17:22:53;8.80;99.90
1568;DHT22;777;47.156;8.326;2022-12-31T17:25:23;8.80;99.90
1568;DHT22;777;47.156;8.326;2022-12-31T17:27:53;8.80;99.90
1568;DHT22;777;47.156;8.326;2022-12-31T17:30:33;8.80;99.90
1568;DHT22;777;47.156;8.326;2022-12-31T17:33:04;8.80;99.90
1568;DHT22;777;47.156;8.326;2022-12-31T17:35:38;8.80;99.90
1568;DHT22;777;47.156;8.326;2022-12-31T17:38:29;8.80;99.90
1568;DHT22;777;47.156;8.326;2022-12-31T17:41:13;8.70;99.90
1568;DHT22;777;47.156;8.326;2022-12-31T17:43:40;8.80;99.90
1568;DHT22;777;47.156;8.326;2022-12-31T17:46:10;8.70;99.90
1568;DHT22;777;47.156;8.326;2022-12-31T17:48:39;8.50;99.90
1568;DHT22;777;47.156;8.326;2022-12-31T17:51:07;8.40;99.90
1568;DHT22;777;47.156;8.326;2022-12-31T17:53:34;8.40;99.90
1568;DHT22;777;47.156;8.326;2022-12-31T17:56:02;8.40;99.90
1568;DHT22;777;47.156;8.326;2022-12-31T17:58:32;8.60;99.90
1568;DHT22;777;47.156;8.326;2022-12-31T18:01:00;8.60;99.90